Norasia Valparaiso — A8CJ9 — position and weather

sailwx.info

Track history (hours):
 
Tides and Currents Weather Stations Pressure Air Temp Water Temp Dewpoint Dewpoint Depression Visibility Wind Speed Wind Dir Waves Ship Positions

Norasia Valparaiso

Last reported at 2014-Oct-09 21:31 UTC. Time now 2014-Oct-21 10:34 UTC.
Position S 20°13' E 057°12'.
Warning: this ship's position is 11 days out of date.

Length 286.3 m; beam 32.2 m; draft 13.2 m.

Type: Cargo ship. MMSI: 636090659.

Date/timePositionNaut miles runAvg speedWind from/ knotsBaromVisibWave heightAir tempDewpointWater temp
2014-Oct-09 21:31S 20°13' E 057°12'8 8.5
2014-Oct-09 20:33S 20°10' E 057°20'5 4.9
2014-Oct-09 19:33S 20°09' E 057°25'4 4.5
2014-Oct-09 18:33S 20°08' E 057°29'0 0.1
2014-Oct-09 17:32S 20°09' E 057°29'0 0.0
2014-Oct-09 16:32S 20°09' E 057°29'0 0.0
2014-Oct-09 15:32S 20°09' E 057°29'0 0.0
2014-Oct-09 14:32S 20°09' E 057°29'0 0.0
2014-Oct-09 13:32S 20°09' E 057°29'0 0.0
2014-Oct-09 12:32S 20°09' E 057°29'0 0.0
2014-Oct-09 11:32S 20°09' E 057°29'0 0.0
2014-Oct-09 10:32S 20°09' E 057°29'0 0.0
2014-Oct-09 09:32S 20°09' E 057°29'0 0.0
2014-Oct-09 08:32S 20°09' E 057°29'0 0.0
2014-Oct-09 07:29S 20°09' E 057°29'0 0.0
2014-Oct-09 06:32S 20°09' E 057°29'0 0.0
2014-Oct-09 05:32S 20°09' E 057°29'0 0.0
2014-Oct-09 04:29S 20°09' E 057°29'1 1.5
2014-Oct-09 03:33S 20°08' E 057°28'9 8.6
2014-Oct-09 02:33S 19°60' E 057°26'1 0.3
2014-Oct-09 00:09S 19°59' E 057°25'0 0.1
2014-Oct-08 23:33S 19°59' E 057°25'0 0.3
2014-Oct-08 22:33S 19°59' E 057°26'0 0.4
2014-Oct-08 21:34S 19°60' E 057°26'1 0.8
2014-Oct-08 20:24S 20°00' E 057°27'0 0.4
2014-Oct-08 19:33S 20°00' E 057°26'  
Track history (hours):
 
Tides and Currents Weather Stations Pressure Air Temp Water Temp Dewpoint Dewpoint Depression Visibility Wind Speed Wind Dir Waves Ship Positions

Norasia Valparaiso

Last reported at 2014-Oct-09 21:31 UTC. Time now 2014-Oct-21 10:34 UTC.
Position S 20°13' E 057°12'.
Warning: this ship's position is 11 days out of date.

Length 286.3 m; beam 32.2 m; draft 13.2 m.

Type: Cargo ship. MMSI: 636090659.

Date/timePositionNaut miles runAvg speedWind from/ knotsBaromVisibWave heightAir tempDewpointWater temp
2014-Oct-09 21:31S 20°13' E 057°12'8 8.5
2014-Oct-09 20:33S 20°10' E 057°20'5 4.9
2014-Oct-09 19:33S 20°09' E 057°25'4 4.5
2014-Oct-09 18:33S 20°08' E 057°29'0 0.1
2014-Oct-09 17:32S 20°09' E 057°29'0 0.0
2014-Oct-09 16:32S 20°09' E 057°29'0 0.0
2014-Oct-09 15:32S 20°09' E 057°29'0 0.0
2014-Oct-09 14:32S 20°09' E 057°29'0 0.0
2014-Oct-09 13:32S 20°09' E 057°29'0 0.0
2014-Oct-09 12:32S 20°09' E 057°29'0 0.0
2014-Oct-09 11:32S 20°09' E 057°29'0 0.0
2014-Oct-09 10:32S 20°09' E 057°29'0 0.0
2014-Oct-09 09:32S 20°09' E 057°29'0 0.0
2014-Oct-09 08:32S 20°09' E 057°29'0 0.0
2014-Oct-09 07:29S 20°09' E 057°29'0 0.0
2014-Oct-09 06:32S 20°09' E 057°29'0 0.0
2014-Oct-09 05:32S 20°09' E 057°29'0 0.0
2014-Oct-09 04:29S 20°09' E 057°29'1 1.5
2014-Oct-09 03:33S 20°08' E 057°28'9 8.6
2014-Oct-09 02:33S 19°60' E 057°26'1 0.3
2014-Oct-09 00:09S 19°59' E 057°25'0 0.1
2014-Oct-08 23:33S 19°59' E 057°25'0 0.3
2014-Oct-08 22:33S 19°59' E 057°26'0 0.4
2014-Oct-08 21:34S 19°60' E 057°26'1 0.8
2014-Oct-08 20:24S 20°00' E 057°27'0 0.4
2014-Oct-08 19:33S 20°00' E 057°26'  

Dump ship's entire track history